Tiempo atmosférico en la estación meteorológica de Reus Aeropuerto, Tarragona (71 m.)



Fecha
DESCASC
Temp. máxima en grados centígrados (hora)
DESCASC
Temp. mínima en grados centígrados (hora)
DESCASC
Temp. media en grados centígrados
DESCASC
Racha de viento máxima en m/sg (hora)
DESCASC
Velocidad máxima media en intervalos de 10 minutos(hora)
DESCASC
Precipitaciones diarias en mm
DESCASC
Precipitaciones de 00:00 a 06:00 en mm
DESCASC
Precipitaciones de 06:00 a 12:00 en mm
DESCASC
Precipitaciones de 12:00 a 18:00 en mm
DESCASC
Precipitaciones de 18:00 a 24:00 en mm
DESCASC
25-04-2019 20.9 (15:20) 13.1 (23:30) 17 9.17 (22:00) 6.39 (16:00) 0.2 0 0 0.2 0
24-04-2019 18.1 (14:00) 10.5 (06:20) 14.3 11.67 (17:50) 8.33 (17:50) 0.6 0.6 0 0 0
23-04-2019 18.9 (14:50) 12.2 (07:10) 15.5 7.22 (13:10) 4.44 (13:10) 0 0 0 0 0
22-04-2019 18.1 (12:50) 12.5 (00:00) 15.3 12.78 (10:40) 6.11 (10:40) -- 0 0.3 0 --
21-04-2019 18 (17:00) 12.7 (00:00) 15.3 14.44 (00:50) 10 (00:20) 0 0 0 0 0
20-04-2019 20.4 (13:20) 11.2 (00:00) 15.8 19.72 (13:40) 12.5 (13:50) 2.2 0 0 0.2 2
19-04-2019 22.7 (14:10) 14.8 (00:00) 18.8 18.06 (04:30) 14.17 (04:40) 0 0 0 0 0
18-04-2019 21.5 (14:40) 11.7 (00:00) 16.6 18.61 (15:40) 11.67 (15:40) 0 0 0 0 0
17-04-2019 18.1 (14:20) 7.9 (00:00) 13 9.17 (17:50) 4.17 (16:20) 0 0 0 0 0
16-04-2019 18.8 (13:50) 9.7 (00:00) 14.2 7.78 (16:10) 5 (13:00) 0 0 0 0 0
15-04-2019 16.9 (13:00) 8.2 (00:00) 12.5 8.33 (10:20) 5.28 (13:00) 0 0 0 0 0
14-04-2019 19.4 (11:30) 7.3 (00:00) 13.3 8.33 (14:30) 6.11 (12:50) 0 0 0 0 0
13-04-2019 22.1 (15:40) 5.3 (00:00) 13.7 10.28 (16:10) 7.22 (16:10) 0 0 0 0 0
12-04-2019 23 (16:50) 10.1 (00:00) 16.6 13.89 (01:20) 10.56 (06:00) 0 0 0 0 0
11-04-2019 22.4 (16:20) 9.7 (00:00) 16 16.11 (07:10) 12.22 (07:10) 0 0 0 0 0
10-04-2019 21 (16:00) 9.7 (00:00) 15.3 12.5 (03:30) 8.33 (03:40) 0 0 0 0 0
09-04-2019 21 (15:50) 8.8 (00:00) 14.9 13.89 (16:20) 10 (17:50) 3.1 0 0 0 3.1
08-04-2019 22.4 (16:40) 6.9 (00:00) 14.6 16.11 (22:50) 9.44 (22:50) 7 0 0 0 7
07-04-2019 19.8 (16:40) 5.1 (00:00) 12.4 18.61 (15:20) 11.11 (12:40) 0 0 0 0 0
06-04-2019 18.1 (14:30) 8 (00:00) 13.1 13.89 (12:50) 9.17 (12:40) 1.3 1.3 0 0 0
05-04-2019 -- (--) -- (--) -- -- (--) -- (--) -- -- 0.5 0 2.2
04-04-2019 17.3 (16:50) 5.5 (00:00) 11.4 14.44 (04:30) 10.56 (04:40) 0 0 0 0 0
03-04-2019 18.5 (13:00) 9 (22:40) 13.8 12.78 (21:50) 7.78 (21:50) 0.6 0 0 0.1 0.5
02-04-2019 19.5 (15:20) 9.6 (00:00) 14.6 -- (--) -- (--) 0 0 0 0 0
01-04-2019 19.2 (13:50) 9.4 (00:00) 14.3 -- (--) -- (--) 0 0 0 0 0
31-03-2019 16.4 (14:50) 7 (00:00) 11.7 9.17 (18:30) 6.11 (17:20) 0 0 0 0 0
30-03-2019 17 (12:30) 6.2 (00:00) 11.6 8.89 (11:20) 5.28 (15:10) 0 0 0 0 0
29-03-2019 17.5 (15:30) 5.4 (00:00) 11.5 7.78 (13:30) 4.72 (16:10) 0 0 0 0 0
28-03-2019 19 (12:30) 3.8 (00:00) 11.4 8.33 (12:40) 6.39 (13:20) 0 0 0 0 0
27-03-2019 -- (--) -- (--) -- 9.17 (15:30) 6.67 (15:40) 0 0 0 0 0

Gráficas

Temp. máximas Temp. mínimas Temp. medias Precipitaciones Rachas de viento máximas Velocidades máximas media en intervalos de 10 minutos

Datos horarios

Fecha y hora oficial Temperatura (ºC) Velocidad del viento (km/h) Dirección del viento Racha (km/h) Dirección de racha Precipitación (mm) Presión (hPa) Tendencia (hPa) Humedad (%)
2019-04-25 23:00:00 13.6 11 Sudoeste 21 Oeste 0 1005.1 3 57
2019-04-25 22:00:00 15.9 15 Oeste 33 Oeste 0 1003.9 2.5 47
2019-04-25 21:00:00 17.2 18 Oeste 30 Noroeste 0 1002.9 1.7 44
2019-04-25 20:00:00 17.2 6 Sudoeste 11 Sudoeste 0 1002.1 0.7 75
2019-04-25 19:00:00 18.5 10 Sur 17 Sudeste 0 1001.4 0.2 67
2019-04-25 18:00:00 18.1 11 Sudeste 24 Sudeste 0 1001.2 0 72
2019-04-25 17:00:00 18.6 17 Sudeste 30 Sudeste 0 1001.4 -0.2 67
2019-04-25 16:00:00 20.1 23 Sudeste 30 Sudeste 0 1001.2 -1.3 60
2019-04-25 15:00:00 20.3 17 Sudeste 26 Sudeste 0 1001.2 -1.3 60
2019-04-25 14:00:00 18.7 3 Sur 13 Nordeste 0 1001.6 -0.2 52
2019-04-25 13:00:00 16.4 2 Norte 22 Noroeste 0.2 1002.5 1.3 71
2019-04-25 12:00:00 17 14 Oeste 24 Oeste 0 1002.5 1.5 65
2019-04-25 11:00:00 16.8 4 Este 15 Noroeste 0 1001.8 1.5 81
2019-04-25 10:00:00 15.6 11 Sudoeste 24 Sudoeste 0 1001.2 1.3 86
2019-04-25 09:00:00 15.8 9 Sudoeste 15 Sur 0 1001 1.2 86
2019-04-25 08:00:00 14.8 6 Sur 15 Sur 0 1000.3 0.1 90
2019-04-25 07:00:00 14.5 8 Sur 21 Sur 0 999.9 -0.3 92
2019-04-25 06:00:00 14.5 13 Sur 21 Sur 0 999.8 -1.2 92
2019-04-25 05:00:00 14.5 13 Sur 21 Sudeste 0 1000.2 -1.3 91
2019-04-25 04:00:00 14.5 10 Sudeste 18 Sudeste 0 1000.2 -1.5 92
2019-04-25 03:00:00 14.5 12 Sudeste 17 Sudeste 0 1001 -0.8 91
2019-04-25 02:00:00 14.5 12 Sudeste 21 Sur 0 1001.5 -0.6 90
2019-04-25 01:00:00 14.5 10 Sur 18 Sur 0 1001.7 -0.1 89
2019-04-25 00:00:00 13.6 9 Este 13 Este 0 1001.8 0.8 91
2019-04-24 23:00:00 12.8 3 Nordeste 8 Nordeste 0 1002.1 1.3 90
2019-04-24 22:00:00 12.8 3 Sudoeste 17 Sudoeste 0 1001.8 1 88
2019-04-24 21:00:00 13.8 13 Sudoeste 26 Sudoeste 0 1001 0.6 81
2019-04-24 20:00:00 14.6 22 Sudoeste 32 Sudoeste 0 1000.8 0.4 72
2019-04-24 19:00:00 16 22 Sur 37 Sur 0 1000.8 0 68
2019-04-24 18:00:00 16.6 29 Sur 42 Sur 0 1000.4 -0.3 57
2019-04-24 17:00:00 17.4 25 Sudoeste 41 Sur 0 1000.4 0.2 52
2019-04-24 16:00:00 14.9 23 Sudoeste 39 Sudoeste 0 1000.8 0.7 65
2019-04-24 15:00:00 15 19 Sur 37 Sur 0 1000.7 1.7 56
2019-04-24 14:00:00 17.9 23 Sur 37 Sur 0 1000.2 1.9 47
2019-04-24 13:00:00 16.5 23 Sur 32 Sur 0 1000.1 2.3 52
2019-04-24 12:00:00 17.6 19 Sur 26 Sur 0 999 2.3 44
2019-04-24 11:00:00 17.2 12 Oeste 26 Oeste 0 998.3 2.4 42
2019-04-24 10:00:00 15.8 15 Oeste 28 Oeste 0 997.8 3.1 46
2019-04-24 09:00:00 13.7 11 Oeste 30 Oeste 0 996.7 3.1 56
2019-04-24 08:00:00 12.2 12 Oeste 32 Oeste 0 995.9 2.8 62
2019-04-24 07:00:00 11.1 13 Sudoeste 24 Oeste 0 994.7 1.8 70
2019-04-24 06:00:00 11.3 5 Noroeste 15 Norte 0 993.6 0.8 80
2019-04-24 05:00:00 11.7 10 Norte 17 Norte 0 993.1 0.5 86
2019-04-24 04:00:00 11.4 10 Noroeste 13 Noroeste 0 992.9 0.4 98
2019-04-24 03:00:00 12.8 4 Sur 8 Sur 0 992.8 0.8 97
2019-04-24 02:00:00 13.6 5 Nordeste 13 Norte 0.6 992.6 1.2 94
2019-04-24 01:00:00 13.9 3 Nordeste 11 Sudeste 0 992.5 1.5 92
2019-04-24 00:00:00 14.2 3 Nordeste 21 Norte 0 992 1.9 89
2019-04-23 23:00:00 14.6 8 Nordeste 9 Nordeste 0 991.4 2.5 89
2019-04-23 22:00:00 14.9 5 Nordeste 11 Este 0 991 1.7 87
2019-04-23 21:00:00 14.8 9 Este 15 Este 0 990.1 0.9 86
2019-04-23 20:00:00 15.7 9 Nordeste 18 Sudeste 0 988.9 -0.1 82
2019-04-23 19:00:00 16.8 12 Sudeste 22 Sudeste 0 989.3 0.1 77
2019-04-23 18:00:00 17.9 12 Sudeste 22 Sudeste 0 989.2 -0.1 72
2019-04-23 17:00:00 18 11 Sur 18 Sudeste 0 989 -0.4 72
2019-04-23 16:00:00 17.9 13 Sudeste 21 Sudeste 0 989.2 -0.6 73
2019-04-23 15:00:00 18.5 14 Sur 26 Sudeste 0 989.3 -0.4 68
2019-04-23 14:00:00 18.4 14 Sur 26 Sur 0 989.4 0.1 68
2019-04-23 13:00:00 18.5 15 Sudoeste 24 Sudoeste 0 989.8 0.7 64
2019-04-23 12:00:00 17.4 11 Sudoeste 21 Sur 0 989.7 1 73
2019-04-23 11:00:00 16.5 10 Sudoeste 15 Sudoeste 0 989.3 1 78
2019-04-23 10:00:00 14.5 6 Sur 9 Sur 0 989.1 1.2 91
2019-04-23 09:00:00 13.5 3 Este 8 Nordeste 0 988.7 0.6 93
2019-04-23 08:00:00 12.7 3 Norte 11 Norte 0 988.3 -0.1 97
2019-04-23 07:00:00 12.5 6 Nordeste 13 Sur 0 987.9 -0.4 97
2019-04-23 06:00:00 12.6 0 Calma 5 Nordeste 0 988.1 -0.8 99
2019-04-23 05:00:00 12.5 5 Nordeste 9 Sur 0 988.4 -1 99
2019-04-23 04:00:00 13.2 3 Sur 13 Oeste 0 988.3 -1.5 93
2019-04-23 03:00:00 12.7 7 Oeste 9 Noroeste 0 988.9 -1.2 97
2019-04-23 02:00:00 13 4 Sudoeste 15 Oeste 0 989.4 -1.4 92
2019-04-23 01:00:00 12.9 9 Oeste 17 Oeste 0 989.8 -- 94
2019-04-23 00:00:00 13 15 Oeste 22 Oeste 0 990.1 0 94
2019-04-22 23:00:00 13 14 Oeste 21 Oeste 1 990.8 0.9 99
2019-04-22 22:00:00 -- -- -- -- -- -- -- -- --
2019-04-22 21:00:00 14.1 3 Noroeste 13 Sudoeste 0.5 990.1 0.5 90
2019-04-22 20:00:00 14.4 8 Oeste 13 Este 0 989.9 -0.9 92
2019-04-22 19:00:00 15.5 8 Este 11 Este 0.3 989.4 -1.4 86
2019-04-22 18:00:00 16.1 3 Noroeste 21 Noroeste 0 989.6 -1.3 77
2019-04-22 17:00:00 15 8 Noroeste 21 Noroeste 0 990.8 -0.2 81
2019-04-22 16:00:00 16.1 9 Oeste 13 Oeste 0 990.8 -1 74
2019-04-22 15:00:00 16.6 10 Sur 15 Sudeste 0 990.9 -1.2 66
2019-04-22 14:00:00 18 9 Nordeste 28 Nordeste 0 991 -1.7 55
2019-04-22 13:00:00 17.9 10 Nordeste 24 Norte 0 991.8 -1 52
2019-04-22 12:00:00 17.8 14 Norte 24 Norte 0 992.1 -0.6 52
2019-04-22 11:00:00 15.7 10 Norte 46 Nordeste 0 992.7 0.1 62
2019-04-22 10:00:00 15.7 12 Nordeste 24 Nordeste 0 992.8 0.1 64
2019-04-22 09:00:00 15.1 13 Norte 18 Nordeste 0 992.7 -0.5 65
2019-04-22 08:00:00 12.8 4 Noroeste 8 Norte 0 992.6 -0.2 89
2019-04-22 07:00:00 12.8 4 Sudeste 15 Norte 0.3 992.7 -1.6 82
2019-04-22 06:00:00 14.3 5 Sudoeste 32 Norte 0 993.2 -2.5 62
2019-04-22 05:00:00 15.4 21 Norte 33 Norte 0 992.8 -4.4 52
2019-04-22 04:00:00 15.3 20 Norte 32 Norte 0 994.3 -3.7 52
2019-04-22 03:00:00 15 15 Norte 22 Norte 0 995.7 -3.1 55
2019-04-22 02:00:00 15.3 14 Nordeste 30 Norte 0 997.2 -2 56
2019-04-22 01:00:00 14.8 8 Norte 21 Nordeste 0 998 -1.9 62
2019-04-22 00:00:00 15.1 14 Nordeste 26 Nordeste 0 998.8 -0.9 60
2019-04-21 23:00:00 15.2 15 Norte 24 Norte 0 999.2 -0.4 61
2019-04-21 22:00:00 14.5 9 Oeste 15 Oeste 0 999.9 0.3 77
2019-04-21 21:00:00 15.1 9 Oeste 13 Norte 0 999.7 -0.4 75
2019-04-21 20:00:00 15.6 6 Este 18 Este 0 999.6 -0.8 72
2019-04-21 19:00:00 16.3 13 Este 21 Este 0 999.6 -1.4 67
2019-04-21 18:00:00 17.1 14 Este 28 Este 0 1000.1 -1.5 55
2019-04-21 17:00:00 18 15 Este 28 Este 0 1000.4 -1.5 51
2019-04-21 16:00:00 17.7 15 Este 41 Nordeste 0 1001 -1.9 51
2019-04-21 15:00:00 17.4 28 Nordeste 39 Este 0 1001.6 -1.8 49
2019-04-21 14:00:00 17 21 Nordeste 32 Nordeste 0 1001.9 -1.4 56
2019-04-21 13:00:00 17.3 18 Este 37 Este 0 1002.9 -0.3 53
2019-04-21 12:00:00 17.1 30 Nordeste 50 Nordeste 0 1003.4 -0.2 52
2019-04-21 11:00:00 17.3 21 Nordeste 39 Norte 0 1003.3 -0.7 53
2019-04-21 10:00:00 15.3 23 Norte 32 Norte 0 1003.2 -0.7 58
2019-04-21 09:00:00 14.5 19 Norte 30 Norte 0 1003.6 -0.7 61
2019-04-21 08:00:00 14.2 21 Norte 35 Norte 0 1004 -0.7 62
2019-04-21 07:00:00 14 23 Norte 35 Norte 0 1003.9 -1.4 62
2019-04-21 06:00:00 14.3 25 Norte 39 Norte 0 1004.3 -2.2 59
2019-04-21 05:00:00 13.5 22 Norte 39 Norte 0 1004.7 -3 65
2019-04-21 04:00:00 13.1 25 Norte 50 Norte 0 1005.3 -3.1 69
2019-04-21 03:00:00 13.1 32 Norte 50 Norte 0 1006.5 -2.6 68
2019-04-21 02:00:00 13.3 29 Norte 46 Norte 0 1007.7 -1.7 66
2019-04-21 01:00:00 13.3 32 Norte 52 Norte 0 1008.4 -1.6 67
2019-04-21 00:00:00 12.8 35 Norte 52 Norte 0 1009.1 -1.1 71
2019-04-20 23:00:00 12.8 39 Norte 55 Norte 0 1009.4 -1 73
2019-04-20 22:00:00 11.9 38 Norte 54 Norte 0.3 1010 0.3 81
2019-04-20 21:00:00 11.6 28 Norte 41 Norte 1.1 1010.2 0.8 86
2019-04-20 20:00:00 12.7 18 Nordeste 35 Norte 0.1 1010.4 1.4 77
2019-04-20 19:00:00 13.6 24 Norte 39 Norte 0.5 1009.7 0.4 76
2019-04-20 18:00:00 15.5 23 Nordeste 41 Nordeste 0.1 1009.4 -0.4 66
2019-04-20 17:00:00 16.3 33 Nordeste 54 Nordeste 0.1 1009 -0.8 59
2019-04-20 16:00:00 19 35 Nordeste 59 Nordeste 0 1009.3 -1.5 42
2019-04-20 15:00:00 19.4 38 Nordeste 63 Nordeste 0 1009.8 -1.6 39
2019-04-20 14:00:00 19.9 42 Nordeste 71 Nordeste 0 1009.8 -1.2 33
2019-04-20 13:00:00 19.5 34 Nordeste 46 Nordeste 0 1010.8 -0.3 37
2019-04-20 12:00:00 18.7 29 Nordeste 46 Nordeste 0 1011.4 0.2 41
2019-04-20 11:00:00 18.4 29 Nordeste 55 Nordeste 0 1011 -0.1 41
2019-04-20 10:00:00 18.2 29 Nordeste 45 Nordeste 0 1011.1 0.7 39
2019-04-20 09:00:00 18 29 Nordeste 48 Nordeste 0 1011.2 0.4 39
2019-04-20 08:00:00 17.3 19 Nordeste 37 Nordeste 0 1011.1 -0.5 41
2019-04-20 07:00:00 16.5 22 Nordeste 35 Nordeste 0 1010.4 -1.8 43
2019-04-20 06:00:00 16.3 24 Nordeste 33 Nordeste 0 1010.8 -1.8 44
2019-04-20 05:00:00 15.7 19 Nordeste 33 Nordeste 0 1011.6 -1.5 46
2019-04-20 04:00:00 15.9 22 Nordeste 42 Nordeste 0 1012.2 -1 47
2019-04-20 03:00:00 16.5 30 Nordeste 45 Nordeste 0 1012.6 -0.3 46
2019-04-20 02:00:00 16.4 22 Nordeste 41 Nordeste 0 1013.1 0.2 48
2019-04-20 01:00:00 16.9 25 Nordeste 41 Nordeste 0 1013.2 0.2 45
2019-04-20 00:00:00 17.5 26 Nordeste 45 Nordeste 0 1012.9 0.3 42
2019-04-19 23:00:00 17.9 30 Nordeste 42 Nordeste 0 1012.9 0.7 44
2019-04-19 22:00:00 17.5 22 Nordeste 46 Este 0 1013 1.1 52
2019-04-19 21:00:00 18.1 29 Nordeste 42 Nordeste 0 1012.6 0.7 50
2019-04-19 20:00:00 18.8 29 Nordeste 50 Nordeste 0 1012.2 1 45
2019-04-19 19:00:00 19.3 17 Este 48 Nordeste 0 1011.9 0.9 44
2019-04-19 18:00:00 20.6 31 Este 46 Nordeste 0 1011.9 0.9 40
2019-04-19 17:00:00 20.8 27 Este 48 Este 0 1011.2 0.3 43
2019-04-19 16:00:00 20.9 33 Este 58 Este 0 1011 -0.1 42
2019-04-19 15:00:00 22.2 33 Este 61 Este 0 1011 0.2 36
2019-04-19 14:00:00 22.1 33 Este 54 Este 0 1010.9 0.1 40
2019-04-19 13:00:00 20.9 32 Este 50 Este 0 1011.1 0.8 42
2019-04-19 12:00:00 20.9 30 Nordeste 46 Este 0 1010.8 0.7 44
2019-04-19 11:00:00 19.5 33 Nordeste 52 Nordeste 0 1010.8 1.3 50
2019-04-19 10:00:00 17.8 34 Nordeste 50 Este 0 1010.3 1.3 54
2019-04-19 09:00:00 16.5 25 Este 45 Nordeste 0 1010.1 1.7 57
2019-04-19 08:00:00 15.4 26 Nordeste 45 Nordeste 0 1009.5 1.8 60
2019-04-19 07:00:00 15 23 Nordeste 45 Nordeste 0 1009 0.2 63
2019-04-19 06:00:00 15.3 28 Nordeste 50 Nordeste 0 1008.4 -0.2 63
2019-04-19 05:00:00 15.5 40 Nordeste 65 Nordeste 0 1007.7 -1.4 62
2019-04-19 04:00:00 15.6 21 Este 35 Este 0 1008.8 -0.8 60
2019-04-19 03:00:00 15.8 23 Nordeste 37 Nordeste 0 1008.6 0.7 57
2019-04-19 02:00:00 15.7 22 Nordeste 32 Nordeste 0 1009.1 1.6 58
2019-04-19 01:00:00 15.7 15 Nordeste 37 Este 0 1009.6 1.8 61
2019-04-19 00:00:00 15.5 23 Este 46 Nordeste 0 1007.9 0.5 60
2019-04-18 23:00:00 15.9 24 Nordeste 46 Nordeste 0 1007.5 0.8 63
2019-04-18 22:00:00 15.7 24 Nordeste 39 Nordeste 0 1007.8 1.4 61
2019-04-18 21:00:00 16.4 22 Este 45 Nordeste 0 1007.4 1.9 60
2019-04-18 20:00:00 17.6 32 Nordeste 48 Este 0 1006.7 0.9 55
2019-04-18 19:00:00 18.6 25 Nordeste 50 Nordeste 0 1006.4 0.6 53
2019-04-18 18:00:00 19.1 41 Nordeste 65 Nordeste 0 1005.5 -1 52
2019-04-18 17:00:00 19.9 28 Este 55 Este 0 1005.8 -0.5 50
2019-04-18 16:00:00 19.1 39 Este 67 Este 0 1005.8 -1.7 52
2019-04-18 15:00:00 20.5 32 Este 50 Este 0 1006.5 -0.8 42
2019-04-18 14:00:00 19.8 24 Nordeste 52 Nordeste 0 1006.3 -1.9 42
2019-04-18 13:00:00 18.3 33 Nordeste 52 Nordeste 0 1007.5 -1.6 44
2019-04-18 12:00:00 16.9 35 Nordeste 48 Nordeste 0 1007.3 -1.2 50
2019-04-18 11:00:00 15.6 31 Nordeste 45 Nordeste 0 1008.2 -0.2 55
2019-04-18 10:00:00 14.6 15 Nordeste 28 Nordeste 0 1009.1 1.7 68
2019-04-18 09:00:00 13.9 13 Nordeste 26 Este 0 1008.5 1.5 72
2019-04-18 08:00:00 12.3 9 Nordeste 13 Nordeste 0 1008.4 0.5 83
2019-04-18 07:00:00 11.8 9 Nordeste 22 Norte 0 1007.4 -1.5 86
2019-04-18 06:00:00 13.2 17 Nordeste 26 Nordeste 0 1007 -1.9 82
2019-04-18 05:00:00 13.7 17 Nordeste 24 Nordeste 0 1007.9 -0.6 81
2019-04-18 04:00:00 13.6 12 Nordeste 18 Nordeste 0 1008.9 -0.2 81
2019-04-18 03:00:00 14 7 Nordeste 22 Nordeste 0 1008.9 -0.3 80
2019-04-18 02:00:00 14 19 Nordeste 26 Este 0 1008.5 -1 82
2019-04-18 01:00:00 13.9 15 Nordeste 22 Nordeste 0 1009.1 -0.2 85
2019-04-18 00:00:00 14.2 14 Nordeste 21 Nordeste 0 1009.2 0.7 86
2019-04-17 23:00:00 13.6 12 Este 18 Este 0 1009.5 1.3 89
2019-04-17 22:00:00 13.7 9 Nordeste 15 Nordeste 0 1009.3 1.3 89
2019-04-17 21:00:00 13.3 9 Este 15 Este 0 1008.5 0.4 88
2019-04-17 20:00:00 14.5 10 Este 17 Este 0 1008.2 -0.2 82
2019-04-17 19:00:00 15 12 Este 21 Este 0 1008 -0.9 78
2019-04-17 18:00:00 16.3 13 Sudeste 33 Sudeste 0 1008.1 -1.3 69
2019-04-17 17:00:00 16.9 14 Este 24 Este 0 1008.4 -1.5 66
2019-04-17 16:00:00 17.5 14 Sudeste 24 Sudeste 0 1008.9 -1.8 63
2019-04-17 15:00:00 17.8 15 Sudeste 30 Este 0 1009.4 -1.4 62
2019-04-17 14:00:00 16.9 13 Sudeste 22 Sudeste 0 1009.9 -0.9 65
2019-04-17 13:00:00 16.3 13 Sudeste 22 Sudeste 0 1010.7 0.1 67
2019-04-17 12:00:00 16.2 9 Este 21 Este 0 1010.8 0.3 65
2019-04-17 11:00:00 14.9 12 Sudeste 17 Sudeste 0 1010.8 0.5 75
2019-04-17 10:00:00 13.5 6 Este 11 Este 0 1010.6 0.6 84
2019-04-17 09:00:00 12.2 8 Norte 15 Norte 0 1010.5 0.4 85
2019-04-17 08:00:00 9.7 8 Norte 13 Norte 0 1010.3 -0.2 93
2019-04-17 07:00:00 8.3 4 Este 13 Nordeste 0 1010 -1.2 96
2019-04-17 06:00:00 10.8 12 Norte 18 Norte 0 1010.1 -1.5 93
2019-04-17 05:00:00 9.6 9 Norte 13 Norte 0 1010.5 -1.4 94
2019-04-17 04:00:00 9.8 11 Norte 13 Norte 0 1011.2 -0.9 94
2019-04-17 03:00:00 10.5 6 Norte 8 Norte 0 1011.6 -0.7 90
2019-04-17 02:00:00 11.4 6 Nordeste 8 Nordeste 0 1011.9 -0.4 87
2019-04-17 01:00:00 11.9 6 Nordeste 8 Nordeste 0 1012.1 0.1 88
2019-04-17 00:00:00 12.8 5 Este 11 Norte 0 1012.3 0.3 84
2019-04-16 23:00:00 13.1 6 Noroeste 13 Noroeste 0 1012.3 0.8 81
2019-04-16 22:00:00 13.6 2 Nordeste 8 Sudeste 0 1012 0.8 83
2019-04-16 21:00:00 13.6 4 Sudeste 11 Este 0 1012 0.7 77
2019-04-16 20:00:00 15.1 6 Este 15 Sudeste 0 1011.5 0.7 70
2019-04-16 19:00:00 16.6 10 Sudeste 18 Sudeste 0 1011.2 0.3 61
2019-04-16 18:00:00 16.9 10 Sudeste 22 Este 0 1011.3 0.3 60
2019-04-16 17:00:00 17.5 15 Sudeste 28 Sudeste 0 1010.8 -0.2 59
2019-04-16 16:00:00 18 15 Sudeste 26 Sudeste 0 1010.9 -0.1 59
2019-04-16 15:00:00 17.6 18 Sudeste 26 Sudeste 0 1011 0.1 60
2019-04-16 14:00:00 18.6 15 Sudeste 24 Este 0 1011 0.1 54
2019-04-16 13:00:00 18.1 18 Sudeste 26 Sudeste 0 1011 0.1 56
2019-04-16 12:00:00 17.7 12 Sur 21 Sur 0 1010.9 1.4 54
2019-04-16 11:00:00 16.9 4 Sur 13 Sudoeste 0 1010.9 1.7 55
2019-04-16 10:00:00 14.9 4 Oeste 11 Este 0 1010.9 2.8 61
2019-04-16 09:00:00 12.5 6 Este 13 Norte 0 1009.5 1.5 78
2019-04-16 08:00:00 11.7 2 Norte 13 Norte 0 1009.2 1.3 80
2019-04-16 07:00:00 11.7 8 Nordeste 9 Nordeste 0 1008.1 0.2 79
2019-04-16 06:00:00 11.3 6 Nordeste 8 Este 0 1008 0.1 83
2019-04-16 05:00:00 11 6 Norte 8 Norte 0 1007.9 -0.2 80
2019-04-16 04:00:00 10.6 6 Norte 15 Norte 0 1007.9 -0.2 80
2019-04-16 03:00:00 10 6 Norte 11 Este 0 1007.9 -0.2 82
2019-04-16 02:00:00 11.3 9 Norte 13 Norte 0 1008.1 0.4 73
2019-04-16 01:00:00 11.8 6 Nordeste 18 Norte 0 1008.1 0.4 72
2019-04-16 00:00:00 12.4 11 Norte 17 Norte 0 1008.1 0.8 70
2019-04-15 23:00:00 12.2 12 Nordeste 15 Nordeste 0 1007.7 0.5 72
2019-04-15 22:00:00 11.8 8 Nordeste 15 Este 0 1007.7 0.5 77
2019-04-15 21:00:00 12.1 10 Este 22 Este 0 1007.3 0.3 77
2019-04-15 20:00:00 13.8 14 Este 24 Este 0 1007.2 -0.3 70
2019-04-15 19:00:00 14.7 12 Este 24 Este 0 1007.2 -0.7 64
2019-04-15 18:00:00 15.5 13 Este 26 Sudeste 0 1007 -1.3 60
2019-04-15 17:00:00 15.7 13 Sudeste 24 Sudeste 0 1007.5 -1.4 59
2019-04-15 16:00:00 15.8 14 Sudeste 28 Sudeste 0 1007.9 -1.5 58
2019-04-15 15:00:00 15.9 15 Sudeste 26 Este 0 1008.3 -1.3 61
2019-04-15 14:00:00 16.1 15 Este 28 Sudeste 0 1008.9 -0.9 59
2019-04-15 13:00:00 16.7 19 Sudeste 30 Sudeste 0 1009.4 -0.2 54
2019-04-15 12:00:00 16.4 18 Sudeste 30 Sudeste 0 1009.6 0.4 57
2019-04-15 11:00:00 16 16 Sudeste 30 Sudeste 0 1009.8 1 66
2019-04-15 10:00:00 15.2 15 Este 24 Este 0 1009.6 1.5 72
2019-04-15 09:00:00 13.2 8 Nordeste 13 Nordeste 0 1009.2 1.5 69
2019-04-15 08:00:00 8.6 6 Norte 9 Norte 0 1008.8 0.7 86
2019-04-15 07:00:00 9.2 4 Norte 13 Noroeste 0 1008.1 -0.2 82
2019-04-15 06:00:00 10.6 10 Norte 13 Norte 0 1007.7 -0.7 79
2019-04-15 05:00:00 11.8 8 Norte 17 Norte 0 1008.1 -0.5 81
2019-04-15 04:00:00 12.2 10 Norte 13 Norte 0 1008.3 0.1 86
2019-04-15 03:00:00 13.3 11 Nordeste 15 Norte 0 1008.4 0.6 84
2019-04-15 02:00:00 13.8 10 Nordeste 17 Nordeste 0 1008.6 1.1 84
2019-04-15 01:00:00 13.2 11 Nordeste 15 Nordeste 0 1008.2 1.3 88
2019-04-15 00:00:00 13.2 5 Nordeste 9 Nordeste 0 1007.8 1.6 88
2019-04-14 23:00:00 12.6 4 Nordeste 9 Este 0 1007.5 1.7 92
2019-04-14 22:00:00 11.7 8 Este 9 Este 0 1006.9 1.3 93
2019-04-14 21:00:00 12.8 4 Este 15 Este 0 1006.2 0.9 89
2019-04-14 20:00:00 13.9 10 Este 18 Sudeste 0 1005.8 0.5 84
2019-04-14 19:00:00 14.7 12 Sudeste 24 Sudeste 0 1005.6 0 81
2019-04-14 18:00:00 16 15 Sudeste 26 Sudeste 0 1005.3 -0.3 77
2019-04-14 17:00:00 17.2 17 Sudeste 26 Sudeste 0 1005.3 0 71
2019-04-14 16:00:00 17 16 Sudeste 24 Sudeste 0 1005.6 0.3 71
2019-04-14 15:00:00 16.3 17 Este 30 Sudeste 0 1005.6 0.3 72
2019-04-14 14:00:00 17.3 18 Este 26 Este 0 1005.3 -0.3 57
2019-04-14 13:00:00 17.5 19 Sudeste 28 Sudeste 0 1005.3 0 59
2019-04-14 12:00:00 18.8 18 Sudeste 28 Sudeste 0 1005.3 0.4 51
2019-04-14 11:00:00 18.5 11 Sudeste 18 Sudeste 0 1005.6 0.9 45
2019-04-14 10:00:00 16.1 7 Este 13 Este 0 1005.3 0.8 52
2019-04-14 09:00:00 12.8 3 Este 15 Nordeste 0 1004.9 0.2 50
2019-04-14 08:00:00 9.5 10 Nordeste 13 Nordeste 0 1004.7 -0.6 65
2019-04-14 07:00:00 7.9 8 Norte 11 Norte 0 1004.5 -0.9 79
2019-04-14 06:00:00 8.5 12 Norte 17 Norte 0 1004.7 -1.2 70
2019-04-14 05:00:00 7.6 7 Nordeste 11 Nordeste 0 1005.3 -1.1 77
2019-04-14 04:00:00 7.8 8 Norte 15 Norte 0 1005.4 -1.6 83
2019-04-14 03:00:00 8.4 8 Norte 17 Norte 0 1005.9 -1.2 81
2019-04-14 02:00:00 9.8 14 Norte 18 Norte 0 1006.4 -0.8 79
2019-04-14 01:00:00 10.5 11 Norte 17 Norte 0 1007 -0.1 80
2019-04-14 00:00:00 11 13 Norte 17 Norte 0 1007.1 0.4 80
2019-04-13 23:00:00 11.4 13 Norte 15 Norte 0 1007.2 0.8 81
2019-04-13 22:00:00 12 6 Este 9 Este 0 1007.1 1 76
2019-04-13 21:00:00 14 5 Este 13 Sudoeste 0 1006.7 0.6 66
2019-04-13 20:00:00 16.5 9 Sudoeste 28 Sudoeste 0 1006.4 0.1 57
2019-04-13 19:00:00 17.2 21 Sudoeste 30 Sudoeste 0 1006.1 -0.4 58
2019-04-13 18:00:00 18.7 19 Sur 30 Sur 0 1006.1 -0.7 48
2019-04-13 17:00:00 19 23 Sur 37 Sudoeste 0 1006.3 -0.9 41
2019-04-13 16:00:00 21.6 24 Sur 35 Sur 0 1006.5 -1.4 29
2019-04-13 15:00:00 21.8 18 Sur 28 Sur 0 1006.8 -1.7 30
2019-04-13 14:00:00 21.5 18 Sur 28 Sudeste 0 1007.2 -1.4 31
2019-04-13 13:00:00 21 9 Este 18 Sur 0 1007.9 -0.4 31
2019-04-13 12:00:00 18.8 5 Noroeste 13 Este 0 1008.5 0.1 34
2019-04-13 11:00:00 16.5 8 Nordeste 13 Nordeste 0 1008.6 0.6 44
2019-04-13 10:00:00 14.2 5 Nordeste 11 Este 0 1008.3 0.8 52
2019-04-13 09:00:00 9.9 4 Sur 8 Sur 0 1008.4 1.2 88
2019-04-13 08:00:00 5.8 2 Norte 8 Nordeste 0 1008 0.7 92
2019-04-13 07:00:00 6.3 2 Noroeste 13 Norte 0 1007.5 -0.2 92
2019-04-13 06:00:00 7.4 10 Norte 15 Nordeste 0 1007.2 -0.7 93
2019-04-13 05:00:00 7.8 7 Norte 13 Norte 0 1007.3 -1 93
2019-04-13 04:00:00 8.6 8 Norte 11 Norte 0 1007.7 -0.3 93
2019-04-13 03:00:00 9.4 4 Nordeste 15 Norte 0 1007.9 0.2 91
2019-04-13 02:00:00 10.9 13 Norte 18 Norte 0 1008.3 0.9 89
2019-04-13 01:00:00 11.3 11 Norte 22 Norte 0 1008 1.2 89
2019-04-13 00:00:00 11.9 11 Norte 22 Norte 0 1007.7 2.2 87
2019-04-12 23:00:00 12.6 13 Nordeste 24 Nordeste 0 1007.4 3 83
2019-04-12 22:00:00 13.1 15 Nordeste 21 Nordeste 0 1006.8 2.3 79
2019-04-12 21:00:00 14.5 8 Oeste 30 Sudoeste 0 1005.5 1.5 69
2019-04-12 20:00:00 16.1 19 Sudoeste 39 Sudoeste 0 1004.4 0.7 63
2019-04-12 19:00:00 18 29 Sudoeste 42 Sudoeste 0 1004.5 0.1 54
2019-04-12 18:00:00 20.4 24 Sudoeste 45 Oeste 0 1004 -1 47
2019-04-12 17:00:00 22.6 25 Oeste 45 Oeste 0 1003.7 -1.5 29
2019-04-12 16:00:00 22.1 27 Oeste 42 Oeste 0 1004.4 -1.5 31
2019-04-12 15:00:00 21.3 31 Oeste 48 Noroeste 0 1005 -1.2 34
2019-04-12 14:00:00 20.4 31 Oeste 50 Oeste 0 1005.2 -0.8 35
2019-04-12 13:00:00 18.9 31 Oeste 42 Oeste 0 1005.9 -0.1 39
2019-04-12 12:00:00 17.7 31 Oeste 48 Oeste 0 1006.2 0 43
2019-04-12 11:00:00 16.2 29 Oeste 46 Oeste 0 1006 0.1 47
2019-04-12 10:00:00 14.2 23 Oeste 33 Noroeste 0 1006 0.5 53
2019-04-12 09:00:00 12.7 22 Oeste 33 Oeste 0 1006.2 1.2 58
2019-04-12 08:00:00 10.4 18 Oeste 30 Oeste 0 1005.9 0.6 65
2019-04-12 07:00:00 10.3 23 Oeste 48 Oeste 0 1005.5 0 65
2019-04-12 06:00:00 10.6 38 Oeste 50 Oeste 0 1005 -0.5 64
2019-04-12 05:00:00 11.1 33 Oeste 46 Oeste 0 1005.3 -0.3 60
2019-04-12 04:00:00 11.7 28 Oeste 50 Oeste 0 1005.5 -0.1 57
2019-04-12 03:00:00 12.1 33 Oeste 46 Oeste 0 1005.5 0.1 58
2019-04-12 02:00:00 12.6 31 Oeste 50 Oeste 0 1005.6 0.5 58
2019-04-12 01:00:00 13.2 29 Oeste 46 Oeste 0 1005.6 0.6 53
2019-04-12 00:00:00 14.2 23 Noroeste 45 Noroeste 0 1005.4 1.6 50
2019-04-11 23:00:00 15.3 23 Noroeste 37 Noroeste 0 1005.1 2.4 49
2019-04-11 22:00:00 16.1 16 Oeste 32 Oeste 0 1005 2.6 49
2019-04-11 21:00:00 18.1 21 Oeste 39 Oeste 0 1003.8 1.6 42
2019-04-11 20:00:00 19.9 28 Oeste 41 Oeste 0 1002.7 0.4 36
2019-04-11 19:00:00 20.7 21 Noroeste 39 Oeste 0 1002.4 0 26
2019-04-11 18:00:00 22 24 Noroeste 46 Noroeste 0 1002.2 -1 24
2019-04-11 17:00:00 22.1 20 Noroeste 41 Noroeste 0 1002.3 -1.5 23
2019-04-11 16:00:00 21.8 19 Noroeste 48 Oeste 0 1002.4 -1.5 25
2019-04-11 15:00:00 20.9 26 Oeste 46 Oeste 0 1003.2 -1.2 31
2019-04-11 14:00:00 19.9 31 Oeste 48 Oeste 0 1003.8 -0.5 34
2019-04-11 13:00:00 18.6 33 Oeste 46 Oeste 0 1003.9 -0.3 40
2019-04-11 12:00:00 17.5 30 Oeste 45 Oeste 0 1004.4 0.3 44
2019-04-11 11:00:00 15.6 28 Oeste 37 Oeste 0 1004.3 0.6 48
2019-04-11 10:00:00 13.4 26 Oeste 41 Oeste 0 1004.2 0.9 54
2019-04-11 09:00:00 11.7 24 Oeste 39 Oeste 0 1004.1 0.9 60
2019-04-11 08:00:00 10.1 31 Oeste 58 Oeste 0 1003.7 0.6 66
2019-04-11 07:00:00 10.1 41 Oeste 54 Oeste 0 1003.3 0 66
2019-04-11 06:00:00 10.4 21 Oeste 35 Oeste 0 1003.2 -0.1 65
2019-04-11 05:00:00 10.5 22 Oeste 42 Oeste 0 1003.1 -0.5 67
2019-04-11 04:00:00 11.4 34 Noroeste 54 Noroeste 0 1003.3 -0.3 65
2019-04-11 03:00:00 12.1 33 Oeste 45 Oeste 0 1003.3 -0.5 61
2019-04-11 02:00:00 12.2 13 Oeste 32 Oeste 0 1003.6 -0.3 63
2019-04-11 01:00:00 9.8 12 Oeste 15 Oeste 0 1003.6 0 86
2019-04-11 00:00:00 11.1 10 Noroeste 13 Noroeste 0 1003.8 1.1 87
2019-04-10 23:00:00 11.6 9 Norte 15 Norte 0 1003.9 2.2 87
2019-04-10 22:00:00 12.4 9 Norte 13 Este 0 1003.6 3.1 86
2019-04-10 21:00:00 13.6 9 Este 21 Sudeste 0 1002.7 2.7 83
2019-04-10 20:00:00 15 9 Este 24 Sudoeste 0 1001.7 1.9 63
2019-04-10 19:00:00 16.7 9 Sudoeste 17 Sur 0 1000.5 1.1 50
2019-04-10 18:00:00 17.9 11 Sudeste 21 Este 0 1000 0.1 44
2019-04-10 17:00:00 18.9 8 Nordeste 39 Oeste 0 999.8 -0.3 39
2019-04-10 16:00:00 20.9 27 Oeste 45 Oeste 0 999.4 -1.1 38
2019-04-10 15:00:00 18.8 24 Oeste 41 Oeste 0 999.9 -0.9 41
2019-04-10 14:00:00 19.8 26 Oeste 39 Oeste 0 1000.1 -0.7 41
2019-04-10 13:00:00 18.5 28 Oeste 37 Oeste 0 1000.5 -0.1 46
2019-04-10 12:00:00 17.3 22 Oeste 39 Oeste 0 1000.8 0.6 51
2019-04-10 11:00:00 16.1 18 Oeste 28 Oeste 0 1000.8 0.9 53
2019-04-10 10:00:00 14.4 6 Este 22 Oeste 0 1000.6 1 58
2019-04-10 09:00:00 12.8 19 Oeste 30 Oeste 0 1000.2 0.6 62
2019-04-10 08:00:00 11.4 9 Oeste 24 Oeste 0 999.9 0.2 69
2019-04-10 07:00:00 11.5 21 Oeste 32 Oeste 0 999.6 0 68
2019-04-10 06:00:00 11 6 Norte 18 Sudoeste 0 999.6 -0.1 77
2019-04-10 05:00:00 10.8 0 Calma 22 Oeste 0 999.7 -0.5 82
2019-04-10 04:00:00 11.7 18 Oeste 45 Oeste 0 999.6 -0.6 71
2019-04-10 03:00:00 11.8 25 Oeste 41 Oeste 0 999.7 -1.2 70
2019-04-10 02:00:00 11.8 8 Noroeste 28 Oeste 0 1000.2 -0.8 76
2019-04-10 01:00:00 11.4 18 Oeste 26 Oeste 0 1000.2 -1 78
2019-04-10 00:00:00 10.9 9 Oeste 22 Norte 0 1000.9 0.8 83
2019-04-09 23:00:00 11 11 Norte 18 Noroeste 0.4 1001 1.8 88
2019-04-09 22:00:00 12.8 15 Oeste 33 Oeste 2.7 1001.2 2.4 63
2019-04-09 21:00:00 12.8 22 Nordeste 30 Nordeste 0 1000.1 1.1 64
2019-04-09 20:00:00 15.6 6 Noroeste 30 Sur 0 999.2 0.3 71
2019-04-09 19:00:00 16.8 20 Sur 42 Sur 0 998.8 -0.1 56
2019-04-09 18:00:00 16.1 30 Sur 48 Sur 0 999 -0.5 51
2019-04-09 17:00:00 17.5 32 Sur 50 Sudoeste 0 998.9 -1.1 54
2019-04-09 16:00:00 20.8 29 Sudoeste 42 Sudoeste 0 998.9 -1.5 32
2019-04-09 15:00:00 20.4 23 Oeste 42 Oeste 0 999.5 -1.2 35
2019-04-09 14:00:00 20 28 Oeste 42 Oeste 0 1000 -0.7 37
2019-04-09 13:00:00 19 28 Oeste 46 Oeste 0 1000.4 -0.2 41
2019-04-09 12:00:00 17.9 23 Oeste 37 Noroeste 0 1000.7 0.3 47
2019-04-09 11:00:00 16.4 23 Oeste 35 Noroeste 0 1000.7 0.5 51
2019-04-09 10:00:00 15 21 Oeste 41 Oeste 0 1000.6 0.3 55
2019-04-09 09:00:00 13.1 30 Oeste 42 Oeste 0 1000.4 0.1 61
2019-04-09 08:00:00 9.8 3 Sur 15 Oeste 0 1000.2 0.2 88
2019-04-09 07:00:00 10.2 7 Noroeste 28 Oeste 0 1000.3 -0.1 89
2019-04-09 06:00:00 11 18 Oeste 28 Oeste 0 1000.3 -0.5 80
2019-04-09 05:00:00 9.1 8 Nordeste 13 Norte 0 1000 -1.1 93
2019-04-09 04:00:00 10.7 8 Noroeste 13 Norte 0 1000.4 -0.8 90
2019-04-09 03:00:00 10.3 9 Norte 17 Norte 0 1000.8 -0.7 91
2019-04-09 02:00:00 10.8 10 Norte 15 Norte 0 1001.1 -1.6 92
2019-04-09 01:00:00 11.3 12 Noroeste 13 Norte 0 1001.2 -0.2 92
2019-04-09 00:00:00 11.9 13 Norte 21 Norte 1.6 1001.5 0.5 93
2019-04-08 23:00:00 12.3 17 Noroeste 58 Oeste 5.4 1002.7 2.1 85
2019-04-08 22:00:00 14.2 9 Oeste 22 Sudoeste 0 1001.4 0.8 67
2019-04-08 21:00:00 15.5 15 Sudoeste 33 Sudoeste 0 1001 0.3 64
2019-04-08 20:00:00 16.7 22 Sudoeste 35 Sudoeste 0 1000.6 0.2 60
2019-04-08 19:00:00 18 17 Sudoeste 33 Sudoeste 0 1000.6 -0.2 62
2019-04-08 18:00:00 18.1 24 Sur 39 Sudoeste 0 1000.7 -0.6 56
2019-04-08 17:00:00 20.2 23 Sur 37 Sudoeste 0 1000.4 -1.3 51
2019-04-08 16:00:00 21.4 22 Oeste 42 Oeste 0 1000.8 -1.2 42
2019-04-08 15:00:00 19.8 25 Oeste 41 Oeste 0 1001.3 -1 44
2019-04-08 14:00:00 19.2 17 Oeste 41 Oeste 0 1001.7 -1 47
2019-04-08 13:00:00 18.9 26 Oeste 33 Oeste 0 1002 -0.9 47
2019-04-08 12:00:00 18 15 Sudoeste 32 Oeste 0 1002.3 -0.7 49
2019-04-08 11:00:00 17 14 Oeste 21 Oeste 0 1002.7 0 48
2019-04-08 10:00:00 12.7 7 Sur 11 Sur 0 1002.9 0.1 61
2019-04-08 09:00:00 9.8 3 Sur 13 Norte 0 1003 0 77
2019-04-08 08:00:00 7.6 11 Norte 15 Norte 0 1002.7 -0.6 80
2019-04-08 07:00:00 8.4 11 Norte 17 Norte 0 1002.8 -0.7 75
2019-04-08 06:00:00 8 7 Norte 15 Norte 0 1003 -0.9 78
2019-04-08 05:00:00 6.9 7 Norte 9 Norte 0 1003.3 -1.1 83
2019-04-08 04:00:00 7.7 8 Norte 17 Norte 0 1003.5 -1 81
2019-04-08 03:00:00 8 10 Norte 15 Norte 0 1003.9 -0.6 82
2019-04-08 02:00:00 8 7 Norte 11 Norte 0 1004.4 -0.3 83
2019-04-08 01:00:00 7.2 6 Norte 13 Noroeste 0 1004.5 -0.2 85
2019-04-08 00:00:00 8.3 11 Noroeste 15 Norte 0 1004.5 0.5 83
2019-04-07 23:00:00 9 10 Norte 18 Norte 0 1004.7 1.6 78
2019-04-07 22:00:00 10.1 8 Noroeste 15 Noroeste 0 1004.7 2.8 75
2019-04-07 21:00:00 11.6 5 Norte 18 Nordeste 0 1004 4.2 69
2019-04-07 20:00:00 12.7 16 Nordeste 37 Nordeste 0 1003.1 4 62
2019-04-07 19:00:00 13.9 29 Este 45 Este 0 1001.9 3.3 60
2019-04-07 18:00:00 19.3 27 Oeste 41 Oeste 0 999.8 1.5 33
2019-04-07 17:00:00 19.5 25 Oeste 48 Oeste 0 999.1 1.2 32
2019-04-07 16:00:00 19.4 34 Oeste 67 Oeste 0 998.6 0.9 33
2019-04-07 15:00:00 18.9 30 Oeste 52 Oeste 0 998.3 1.1 35
2019-04-07 14:00:00 17.7 33 Oeste 52 Noroeste 0 997.9 0.8 37
2019-04-07 13:00:00 16.4 36 Noroeste 65 Oeste 0 997.7 1.5 41
2019-04-07 12:00:00 15.1 28 Noroeste 50 Noroeste 0 997.2 1.5 46
2019-04-07 11:00:00 13.4 24 Noroeste 45 Oeste 0 997.1 1.9 53
2019-04-07 10:00:00 12.3 29 Noroeste 50 Oeste 0 996.2 1.5 58
2019-04-07 09:00:00 11.3 3 Noroeste 18 Oeste 0 995.7 1.7 61
2019-04-07 08:00:00 7.3 6 Oeste 17 Oeste 0 995.2 1.2 77
2019-04-07 07:00:00 7.9 8 Oeste 28 Oeste 0 994.7 0.7 73
2019-04-07 06:00:00 8.1 9 Oeste 21 Oeste 0 994 -0.1 72
2019-04-07 05:00:00 8.8 11 Oeste 28 Oeste 0 994 -0.2 69
2019-04-07 04:00:00 6.7 0 Calma 9 Nordeste 0 994 -0.3 83
2019-04-07 03:00:00 5.4 7 Nordeste 11 Norte 0 994.1 -0.2 87
2019-04-07 02:00:00 6.9 8 Norte 13 Norte 0 994.2 0.3 83
2019-04-07 01:00:00 7.9 2 Norte 11 Sudoeste 0 994.3 0.5 76
2019-04-07 00:00:00 8.2 3 Sudoeste 17 Sur 0 994.3 0.6 73
2019-04-06 23:00:00 9.5 3 Norte 17 Norte 0 993.9 0.3 71
2019-04-06 22:00:00 11.7 7 Noroeste 33 Noroeste 0 993.8 0.4 60
2019-04-06 21:00:00 11.7 31 Noroeste 45 Noroeste 0 993.7 0.7 64
2019-04-06 20:00:00 13.1 3 Oeste 17 Sur 0 993.6 0.8 65
2019-04-06 19:00:00 13.6 13 Sur 30 Sur 0 993.4 0.6 61
2019-04-06 18:00:00 15.5 21 Sur 32 Sur 0 993 0.2 43
2019-04-06 17:00:00 14.2 21 Sur 35 Sur 0 992.8 0.1 52
2019-04-06 16:00:00 15.4 27 Sur 41 Sudoeste 0 992.8 0.1 48
2019-04-06 15:00:00 16.2 23 Sudoeste 46 Oeste 0 992.8 -0.6 37
2019-04-06 14:00:00 16.6 27 Oeste 46 Oeste 0 992.7 -0.7 38
2019-04-06 13:00:00 15.7 28 Oeste 50 Noroeste 0 992.7 -0.1 41
2019-04-06 12:00:00 14.7 25 Oeste 41 Oeste 0 993.4 1 46
2019-04-06 11:00:00 13.3 28 Oeste 45 Oeste 0 993.4 1.5 51
2019-04-06 10:00:00 12 19 Oeste 35 Oeste 0 992.8 2.6 57
2019-04-06 09:00:00 10.3 25 Oeste 37 Oeste 0 992.4 2.8 63
2019-04-06 08:00:00 9.3 22 Sudoeste 32 Sudoeste 0 991.9 2.4 66
2019-04-06 07:00:00 8.6 10 Sudoeste 41 Noroeste 0 990.2 0.4 68
2019-04-06 06:00:00 9.2 24 Oeste 39 Noroeste 0 989.6 0.4 68
2019-04-06 05:00:00 8.9 13 Noroeste 39 Oeste 0 989.5 0 71
2019-04-06 04:00:00 9 26 Noroeste 46 Oeste 0 989.8 0 73
2019-04-06 03:00:00 9 30 Oeste 41 Oeste 0 989.2 -0.4 76
2019-04-06 02:00:00 10.6 5 Norte 9 Noroeste 0 989.5 -0.3 98
2019-04-06 01:00:00 10.5 5 Sur 17 Sudoeste 1.3 989.8 -0.4 95
2019-04-06 00:00:00 11.1 0 Calma 9 Oeste 0.3 989.6 -0.2 94
2019-04-05 23:00:00 11 7 Sur 22 Sudoeste 1.2 989.8 -0.2 90
2019-04-05 22:00:00 11.2 9 Sur 46 Sur 0.7 990.2 -0.2 89
2019-04-05 21:00:00 13.4 15 Sur 30 Sur 0 989.8 -0.5 94
2019-04-05 20:00:00 14 22 Sur 33 Sur 0 990 -0.7 87
2019-04-05 19:00:00 14.4 13 Sur 28 Sudeste 0 990.4 -0.9 80
2019-04-05 18:00:00 15.2 15 Sudeste 30 Sudeste 0 990.3 -1.6 70
2019-04-05 17:00:00 15.3 14 Sur 30 Sur 0 990.7 -1.5 63
2019-04-05 16:00:00 15.4 17 Sur 33 Sudoeste 0 991.3 -1.1 64
2019-04-05 15:00:00 16.5 23 Sur 35 Sur 0 991.9 -1.1 59
2019-04-05 14:00:00 17 21 Sur 30 Sur 0 992.2 -0.6 59
2019-04-05 13:00:00 16.2 19 Sur 32 Sur 0 992.4 -0.7 60
2019-04-05 12:00:00 15.9 19 Sur 28 Sur 0 993 -0.1 67
2019-04-05 11:00:00 14.9 11 Sudoeste 24 Sur 0.4 992.8 -0.3 76
2019-04-05 10:00:00 12.1 9 Norte 15 Noroeste 0.1 993.1 0 78
2019-04-05 09:00:00 11 11 Norte 17 Nordeste 0 993.1 -0.5 74
2019-04-05 08:00:00 9.7 12 Norte 17 Norte 0 993.1 -- 75
2019-04-05 07:00:00 8.6 14 Norte 17 Norte 0 993.1 -- 75
2019-04-05 06:00:00 6.3 10 Norte -- -- -- 993.6 -- 81
2019-04-05 05:00:00 -- -- -- -- -- -- -- -- --
2019-04-05 04:00:00 -- -- -- -- -- -- -- -- --
2019-04-05 03:00:00 -- -- -- -- -- -- -- -- --
2019-04-05 02:00:00 -- -- -- -- -- -- -- -- --
2019-04-05 01:00:00 -- -- -- -- -- -- -- -- --
2019-04-05 00:00:00 9.4 12 Oeste 18 Oeste 0 995.1 0.6 60
2019-04-04 23:00:00 8.5 11 Oeste 17 Oeste 0 995.3 1 66
2019-04-04 22:00:00 9.3 10 Oeste 21 Sudoeste 0 995.1 1 67
2019-04-04 21:00:00 10.2 12 Sudoeste 24 Sudoeste 0 994.5 1.1 59
2019-04-04 20:00:00 12.3 20 Sudoeste 48 Sudoeste 0 994.3 0.7 50
2019-04-04 19:00:00 13.9 33 Sudoeste 45 Sudoeste 0 994.1 0.7 47
2019-04-04 18:00:00 17.1 19 Sudoeste 35 Oeste 0 993.4 -0.7 24
2019-04-04 17:00:00 17.2 19 Oeste 39 Oeste 0 993.6 -1 25
2019-04-04 16:00:00 16.8 32 Oeste 46 Oeste 0 993.4 -1.2 26
2019-04-04 15:00:00 16.2 27 Oeste 37 Oeste 0 994.1 -1 28
2019-04-04 14:00:00 15.9 24 Oeste 41 Oeste 0 994.6 -0.2 30
2019-04-04 13:00:00 15.2 18 Oeste 32 Noroeste 0 994.6 0.2 29
2019-04-04 12:00:00 13.5 9 Sudeste 30 Sudoeste 0 995.1 1.2 37
2019-04-04 11:00:00 11.8 17 Este 46 Norte 0 994.8 1.6 41
2019-04-04 10:00:00 9.6 23 Noroeste 45 Noroeste 0 994.4 1.6 44
2019-04-04 09:00:00 7.9 23 Noroeste 45 Noroeste 0 993.9 1.3 49
2019-04-04 08:00:00 6.1 8 Norte 18 Noroeste 0 993.2 0.7 55
2019-04-04 07:00:00 6.2 12 Norte 42 Noroeste 0 992.8 -0.3 53
2019-04-04 06:00:00 6.6 23 Noroeste 45 Noroeste 0 992.6 -1 51
2019-04-04 05:00:00 6.7 33 Oeste 52 Noroeste 0 992.5 -1.2 53
2019-04-04 04:00:00 7.3 13 Norte 35 Oeste 0 993.1 -0.8 53
2019-04-04 03:00:00 7.7 18 Oeste 30 Oeste 0 993.6 0 54
2019-04-04 02:00:00 8.4 9 Sudeste 33 Oeste 0 993.7 -0.1 47
2019-04-04 01:00:00 9.8 18 Noroeste 35 Oeste 0 993.9 -0.4 40
2019-04-04 00:00:00 9.3 21 Oeste 37 Oeste 0 993.6 -0.3 54
2019-04-03 23:00:00 9.9 12 Oeste 30 Oeste 0 993.8 0.1 57
2019-04-03 22:00:00 10.2 21 Oeste 46 Oeste 0 994.3 0.8 67
2019-04-03 21:00:00 10.1 6 Oeste 9 Oeste 0 993.9 0.9 86
2019-04-03 20:00:00 10.6 4 Sur 32 Oeste 0.5 993.7 0.4 79
2019-04-03 19:00:00 12.5 15 Noroeste 41 Noroeste 0 993.5 0.3 58
2019-04-03 18:00:00 13.9 24 Noroeste 39 Noroeste 0 993 -0.8 52
2019-04-03 17:00:00 14.6 27 Oeste 35 Oeste 0.1 993.3 -1.6 55
2019-04-03 16:00:00 17.4 18 Noroeste 33 Oeste 0 993.2 -2.7 45
2019-04-03 15:00:00 17.6 3 Norte 24 Oeste 0 993.8 -3.1 51
2019-04-03 14:00:00 17.4 16 Oeste 24 Oeste 0 994.9 -2.8 49
2019-04-03 13:00:00 18.4 13 Oeste 18 Oeste 0 995.9 -2.3 48
2019-04-03 12:00:00 16.6 6 Sudoeste 13 Oeste 0 996.9 -1.6 61
2019-04-03 11:00:00 14.2 8 Sudoeste 11 Sudoeste 0 997.7 -1 81
2019-04-03 10:00:00 14.5 4 Oeste 9 Oeste 0 998.2 -1 82
2019-04-03 09:00:00 12.9 3 Norte -- -- 0 998.5 -1.3 89
2019-04-03 08:00:00 11.2 8 Norte 11 Norte 0 998.7 -1.8 93
2019-04-03 07:00:00 11.9 8 Norte 11 Nordeste 0 999.2 -2 92
2019-04-03 06:00:00 11.9 5 Norte 11 Norte 0 999.8 -2.3 91
2019-04-03 05:00:00 12.6 8 Norte 13 Norte 0 1000.5 -2.4 89
2019-04-03 04:00:00 12.9 10 Norte 15 Norte 0 1001.2 -2.1 88
2019-04-03 03:00:00 12.9 11 Norte 17 Nordeste 0 1002.1 -1.3 90
2019-04-03 02:00:00 12.9 12 Nordeste 17 Nordeste 0 1002.9 -0.6 91
2019-04-03 01:00:00 12.4 10 Norte 15 Nordeste 0 1003.3 -0.1 92
2019-04-03 00:00:00 11 9 Nordeste 15 Norte 0 1003.4 0.2 91
2019-04-02 23:00:00 12 9 Norte 11 Norte 0 1003.5 0.7 92
2019-04-02 22:00:00 12.7 7 Nordeste 11 Este 0 1003.4 0.5 94
2019-04-02 21:00:00 13.1 6 Este 9 Este 0 1003.2 0.3 89
2019-04-02 20:00:00 15.3 9 Sur 17 Sur 0 1002.8 -0.6 75
2019-04-02 19:00:00 16.9 12 Sur 24 Sur 0 1002.9 -1 68
2019-04-02 18:00:00 17.3 14 Sur 26 Sur 0 1002.9 -1.4 68
2019-04-02 17:00:00 18.6 17 Sur 24 Sudoeste 0 1003.4 -1.6 64
2019-04-02 16:00:00 18.5 18 Sur 30 Sur 0 1003.9 -1.8 66
2019-04-02 15:00:00 18.9 12 Sur 24 Sur 0 1004.3 -1.9 58
2019-04-02 14:00:00 18.3 14 Sur 26 Sudoeste 0 1005 -1.1 60
2019-04-02 13:00:00 17.4 12 Sur 21 Sudoeste 0 1005.7 -0.2 61
2019-04-02 12:00:00 15.4 9 Sudoeste 21 Sur 0 1006.2 0.3 63
2019-04-02 11:00:00 16.1 10 Sur 17 Sur 0 1006.1 0.5 62
2019-04-02 10:00:00 14.4 4 Este 8 Este 0 1005.9 0.4 70
2019-04-02 09:00:00 10.3 5 Norte 11 Noroeste 0 1005.9 0.5 83
2019-04-02 08:00:00 9.8 5 Norte 8 Norte 0 1005.6 -0.2 86
2019-04-02 07:00:00 10.3 6 Norte 11 Norte 0 1005.5 -0.7 85
2019-04-02 06:00:00 11.1 8 Norte 11 Norte 0 1005.4 -1.1 77
2019-04-02 05:00:00 11.7 6 Norte 11 Norte 0 1005.8 -1.1 78
2019-04-02 04:00:00 11.7 8 Norte 11 Norte 0 1006.2 -1 80
2019-04-02 03:00:00 11.5 7 Norte 9 Nordeste 0 1006.5 -0.8 83
2019-04-02 02:00:00 12.1 5 Norte -- -- 0 1006.9 -0.5 85
2019-04-02 01:00:00 12.3 -- -- -- -- 0 1007.2 0 88
2019-04-02 00:00:00 12.1 6 Sudoeste 8 Sudoeste 0 1007.3 0.8 88
2019-04-01 23:00:00 12.3 7 Sudoeste 9 Sur 0 1007.4 1.3 88
2019-04-01 22:00:00 12.4 8 Sudoeste -- -- 0 1007.2 1.4 86
2019-04-01 21:00:00 13 -- -- -- -- 0 1006.5 0.7 75
2019-04-01 20:00:00 13.6 6 Sudoeste 11 Sudoeste 0 1006.1 0.3 72
2019-04-01 19:00:00 14.9 8 Sudoeste 17 Sudoeste 0 1005.8 -0.2 64
2019-04-01 18:00:00 16.7 13 Sudoeste 26 Sur 0 1005.8 -0.4 52
2019-04-01 17:00:00 17.5 14 Sur 24 Sur 0 1005.8 -0.7 44
2019-04-01 16:00:00 17.3 16 Sur 24 Sur 0 1006 -0.8 39
2019-04-01 15:00:00 17 13 Sur 22 Sur 0 1006.2 -0.8 48
2019-04-01 14:00:00 18.7 13 Sur 24 Sudeste 0 1006.5 -0.4 41
2019-04-01 13:00:00 18.2 12 Sur 22 Sur 0 1006.8 0.5 42
2019-04-01 12:00:00 16.9 8 Sudeste 17 Sudeste 0 1007 0.9 43
2019-04-01 11:00:00 16 5 Este 11 Este 0 1006.9 1.1 44
2019-04-01 10:00:00 13.1 2 Este 8 Nordeste 0 1006.3 0.9 62
2019-04-01 09:00:00 11.2 5 Noroeste 11 Norte 0 1006.1 0.7 69
2019-04-01 08:00:00 9.5 9 Nordeste 13 Nordeste 0 1005.8 0.3 73
2019-04-01 07:00:00 10.2 7 Norte 9 Nordeste 0 1005.4 0 71
2019-04-01 06:00:00 10.8 4 Este 11 Este 0 1005.4 -0.4 67
2019-04-01 05:00:00 10.8 7 Noroeste 9 Noroeste 0 1005.5 -0.7 72
2019-04-01 04:00:00 11.7 5 Nordeste 13 Nordeste 0 1005.4 -1.1 66
2019-04-01 03:00:00 11.7 8 Norte 9 Norte 0 1005.8 -0.8 73
2019-04-01 02:00:00 12.1 8 Norte 13 Norte 0 1006.2 -0.4 71
2019-04-01 01:00:00 12.6 4 Norte 5 Norte 0 1006.5 0.1 66
2019-04-01 00:00:00 12.6 4 Nordeste 9 Este 0 1006.6 0.4 66
2019-03-31 23:00:00 13 4 Nordeste 13 Este 0 1006.6 0.6 67
2019-03-31 22:00:00 12.9 7 Este 13 Este 0 1006.4 0.2 74
2019-03-31 21:00:00 13.1 8 Este 15 Este 0 1006.2 -0.1 76
2019-03-31 20:00:00 13.7 8 Este 28 Nordeste 0 1006 -0.3 71
2019-03-31 19:00:00 14.3 10 Este 33 Este 0 1006.2 -0.2 73
2019-03-31 18:00:00 15.2 17 Sudeste 32 Sudeste 0 1006.3 -1 71
2019-03-31 17:00:00 15.4 19 Este 30 Este 0 1006.3 -1.7 69
2019-03-31 16:00:00 15.6 15 Sudeste 26 Sudeste 0 1006.4 -1.9 68
2019-03-31 15:00:00 16 16 Sudeste 28 Sudeste 0 1007.3 -1.2 65
2019-03-31 14:00:00 16 10 Este 24 Sudeste 0 1008 -0.7 61
2019-03-31 13:00:00 14.8 16 Este 26 Este 0 1008.3 0 66
2019-03-31 12:00:00 14.6 18 Nordeste 24 Nordeste 0 1008.5 0 66
2019-03-31 11:00:00 13.2 10 Nordeste 24 Nordeste 0 1008.7 0.2 69
2019-03-31 10:00:00 12.5 15 Norte 21 Norte 0 1008.3 -0.2 71
2019-03-31 09:00:00 11.8 17 Norte 24 Norte 0 1008.5 -0.4 72
2019-03-31 08:00:00 11.3 14 Norte 18 Norte 0 1008.5 -1.3 73
2019-03-31 07:00:00 11 13 Norte 18 Norte 0 1008.5 -1.9 71
2019-03-31 06:00:00 10.4 11 Norte 17 Norte 0 1008.9 -1.7 74
2019-03-31 05:00:00 9.7 11 Norte 15 Nordeste 0 1009.8 -1.3 79
2019-03-31 03:00:00 9.3 10 Norte 21 Norte 0 1010.6 -2.1 82
2019-03-31 01:00:00 9.8 14 Norte 21 Norte 0 1011.1 -2 82
2019-03-31 00:00:00 9.9 13 Norte 17 Norte 0 1012.1 -0.8 84
2019-03-30 23:00:00 9.9 11 Norte 15 Norte 0 1012.7 0.3 84
2019-03-30 22:00:00 10.1 9 Norte 11 Norte 0 1013.1 1.4 82
2019-03-30 21:00:00 10.5 8 Nordeste 9 Nordeste 0 1012.9 1.1 81
2019-03-30 20:00:00 10.9 6 Este 18 Sudeste 0 1012.4 0.4 78
2019-03-30 19:00:00 12.5 12 Este 22 Sudeste 0 1011.7 -0.8 73
2019-03-30 18:00:00 13.6 17 Sudeste 26 Sudeste 0 1011.8 -1.2 68
2019-03-30 17:00:00 15.2 16 Sudeste 28 Sudeste 0 1012 -1.6 63
2019-03-30 16:00:00 15.7 18 Sudeste 30 Este 0 1012.5 -1.7 61
2019-03-30 15:00:00 16.2 18 Sudeste 30 Sudeste 0 1013 -1.8 57
2019-03-30 14:00:00 16.6 19 Sudeste 30 Sudeste 0 1013.6 -1.8 53
2019-03-30 13:00:00 16.8 17 Sudeste 30 Sudeste 0 1014.2 -1.4 53
2019-03-30 12:00:00 16.3 16 Sudeste 32 Sudeste 0 1014.8 -0.8 53
2019-03-30 11:00:00 15.9 12 Sudeste 21 Sudeste 0 1015.4 0 54
2019-03-30 10:00:00 14.4 9 Nordeste 18 Nordeste 0 1015.6 0.2 56
2019-03-30 09:00:00 12.5 11 Nordeste 18 Nordeste 0 1015.6 0.2 64
2019-03-30 08:00:00 9.9 11 Norte 17 Norte 0 1015.4 -0.2 77
2019-03-30 07:00:00 7.2 9 Norte 17 Norte 0 1015.4 -0.6 85
2019-03-30 06:00:00 8 13 Norte 18 Norte 0 1015.4 -1 86
2019-03-30 05:00:00 8.7 12 Norte 17 Norte 0 1015.6 -1.1 84
2019-03-30 04:00:00 9.4 13 Norte 17 Norte 0 1016 -1 81
2019-03-30 03:00:00 9.3 13 Norte 17 Norte 0 1016.4 -0.9 82
2019-03-30 02:00:00 8.5 14 Norte 18 Norte 0 1016.7 -1 85
2019-03-30 01:00:00 7.4 7 Norte 13 Norte 0 1017 -0.6 87
2019-03-30 00:00:00 9.1 11 Norte 13 Norte 0 1017.3 -0.3 84
2019-03-29 23:00:00 9.6 11 Norte 13 Norte 0 1017.7 0.4 84
2019-03-29 22:00:00 9.4 11 Norte 13 Norte 0 1017.6 0.4 81
2019-03-29 21:00:00 10.7 6 Norte -- -- 0 1017.6 0.7 77
2019-03-29 20:00:00 10.9 8 Este 11 Este 0 1017.3 0.2 76
2019-03-29 19:00:00 13 10 Sudeste 18 Sudeste 0 1017.2 -0.1 64
2019-03-29 18:00:00 14.6 12 Sudeste 22 Sudeste 0 1016.9 -1 60
2019-03-29 17:00:00 16.1 15 Sudeste 26 Sudeste 0 1017.1 -1.4 42
2019-03-29 16:00:00 16.6 15 Sudeste 24 Sudeste 0 1017.3 -1.6 44
2019-03-29 15:00:00 17.1 14 Sudeste 28 Sudeste 0 1017.9 -1.2 51
2019-03-29 14:00:00 16.9 13 Sudeste 28 Sudeste 0 1018.5 -0.9 52
2019-03-29 13:00:00 17 14 Sur 26 Sudeste 0 1018.9 -0.6 50
2019-03-29 12:00:00 16.5 13 Sudeste 22 Sudeste 0 1019.1 0 46
2019-03-29 11:00:00 15.9 9 Sudeste 17 Sudeste 0 1019.4 0.6 51
2019-03-29 10:00:00 15.2 9 Sudeste 15 Este 0 1019.5 1.1 50
2019-03-29 09:00:00 12.2 7 Sudeste 13 Norte 0 1019.1 1 55
2019-03-29 08:00:00 8.9 6 Nordeste 9 Nordeste 0 1018.8 0.7 65
2019-03-29 07:00:00 6.6 7 Norte 18 Norte 0 1018.4 0.3 69
2019-03-29 06:00:00 8.4 16 Norte 22 Norte 0 1018.1 -0.2 67
2019-03-29 05:00:00 8.5 9 Norte 18 Norte 0 1018.1 -0.7 75
2019-03-29 04:00:00 5.8 11 Norte 13 Norte 0 1018.1 -0.9 77
2019-03-29 03:00:00 6.3 12 Norte 13 Norte 0 1018.3 -1 86
2019-03-29 02:00:00 7 10 Norte 15 Norte 0 1018.8 -0.5 89
2019-03-29 01:00:00 7.4 -- -- -- -- 0 1019 -0.3 81
2019-03-29 00:00:00 7.5 7 Norte -- -- 0 1019.3 0.4 87
2019-03-28 23:00:00 8.4 -- -- -- -- 0 1019.3 0.9 83
2019-03-28 22:00:00 8.7 10 Norte 17 Noroeste 0 1019.3 1.3 78
2019-03-28 21:00:00 10.9 4 Oeste 5 Oeste 0 1018.9 1.3 72
2019-03-28 20:00:00 11.7 4 Sur 9 Sur 0 1018.4 1 73
2019-03-28 19:00:00 13.5 8 Sur 17 Sudoeste 0 1018 0.5 63
2019-03-28 18:00:00 15.5 12 Sur 22 Sur 0 1017.6 0 51
2019-03-28 17:00:00 16.7 14 Sur 22 Sur 0 1017.4 -0.5 34
2019-03-28 16:00:00 17.7 17 Sur 26 Sur 0 1017.5 -0.7 29
2019-03-28 15:00:00 17.8 18 Sudeste 30 Sur 0 1017.6 -1 33
2019-03-28 14:00:00 18 21 Sudeste 30 Sudeste 0 1017.9 -1.1 31
2019-03-28 13:00:00 18.4 21 Sudeste 30 Este 0 1018.2 -1 33
2019-03-28 12:00:00 18.8 12 Sudeste 24 Sudeste 0 1018.6 -0.7 27
2019-03-28 11:00:00 17.2 5 Norte 28 Norte 0 1019 -0.2 30
2019-03-28 10:00:00 15.8 8 Oeste 21 Noroeste 0 1019.2 0.2 37
2019-03-28 09:00:00 12 9 Nordeste 13 Nordeste 0 1019.3 0.7 58
2019-03-28 08:00:00 8.1 4 Nordeste 11 Norte 0 1019.2 1.1 75
2019-03-28 07:00:00 5 6 Norte 13 Norte 0 1019 1.1 86
2019-03-28 06:00:00 3.9 7 Norte 13 Norte 0 1018.6 0.6 89
2019-03-28 05:00:00 5.9 14 Norte 21 Norte 0 1018.1 0.1 80
2019-03-28 04:00:00 6.5 14 Norte 21 Norte 0 1017.9 -0.3 77
2019-03-28 03:00:00 6 10 Nordeste 13 Nordeste 0 1018 0 90
2019-03-28 02:00:00 7.2 13 Noroeste -- -- 0 1018 0.2 89
2019-03-28 01:00:00 6.7 8 Norte 11 Nordeste 0 1018.2 0.5 88
2019-03-28 00:00:00 7.7 7 Norte -- -- 0 1018 0.7 84
2019-03-27 23:00:00 8.3 11 Noroeste 13 Noroeste 0 1017.8 1.6 81
2019-03-27 22:00:00 8.9 6 Norte 8 Norte 0 1017.7 2.1 76
2019-03-27 21:00:00 10.7 2 Sur 8 Sur 0 1017.3 2 71
2019-03-27 20:00:00 11.2 5 Sur 13 Sur 0 1016.2 1.2 68
2019-03-27 19:00:00 13.1 8 Sur 22 Sur 0 1015.6 1.1 61
2019-03-27 18:00:00 14.9 15 Sur 30 Sudoeste 0 1015.3 1.1 54
2019-03-27 17:00:00 15.7 22 Sudoeste 30 Sudoeste 0 1015 0.5 52
2019-03-27 16:00:00 16.8 23 Sur 33 Sudoeste 0 1014.5 -0.3 43
2019-03-27 15:00:00 18.6 23 Sur 32 Sur 0 1014.2 -0.9 35
2019-03-27 14:00:00 18.8 23 Sur 32 Sur 0 1014.5 -0.8 31
2019-03-27 13:00:00 19.2 13 Sudoeste 28 Sudoeste 0 1014.8 -0.5 25
2019-03-27 12:00:00 18.2 14 Oeste 26 Oeste 0 1015.1 -0.7 26
2019-03-27 11:00:00 17.3 13 Sudoeste 22 Oeste 0 1015.3 -0.3 31
2019-03-27 10:00:00 14.8 5 Sur 11 Sudoeste 0 1015.3 0.3 41
2019-03-27 09:00:00 11.6 5 Este 13 Norte 0 1015.8 0.8 50
2019-03-27 08:00:00 7.3 5 Norte 15 Nordeste 0 1015.6 0.9 65
2019-03-27 07:00:00 4.3 11 Nordeste 18 Norte 0 1015 0.3 76
2019-03-27 06:00:00 5 12 Norte 17 Norte 0 1015 0.2 77
2019-03-27 05:00:00 4.1 6 Norte 17 Norte 0 1014.7 -0.3 79
2019-03-27 04:00:00 5.6 10 Norte 15 Norte 0 1014.7 -0.3 78
2019-03-27 03:00:00 6.2 8 Norte 9 Norte 0 1014.8 -0.2 77
2019-03-27 02:00:00 7.2 10 Norte 13 Norte 0 1015 0.1 75
2019-03-27 01:00:00 9.4 8 Oeste 15 Oeste 0 1015 0.2 69
2019-03-27 00:00:00 9.1 13 Oeste 15 Oeste 0 1015 0.6 70